createdAt,value
2018-04-18T00:01:32.812Z,14.17
2018-04-18T00:04:05.585Z,15.00
2018-04-18T00:06:38.535Z,15.13
2018-04-18T00:09:11.458Z,15.00
2018-04-18T00:11:44.140Z,14.40
2018-04-18T00:14:17.745Z,15.43
2018-04-18T00:16:50.531Z,14.20
2018-04-18T00:19:23.504Z,14.17
2018-04-18T00:21:56.503Z,14.57
2018-04-18T00:24:29.806Z,14.07
2018-04-18T00:27:03.158Z,13.83
2018-04-18T00:29:36.404Z,14.03
2018-04-18T00:32:09.008Z,13.30
2018-04-18T00:34:42.418Z,14.70
2018-04-18T00:37:15.833Z,13.67
2018-04-18T00:39:49.267Z,14.20
2018-04-18T00:42:22.129Z,13.80
2018-04-18T00:44:54.810Z,14.10
2018-04-18T00:47:27.610Z,13.97
2018-04-18T00:50:00.386Z,13.50
2018-04-18T00:52:34.070Z,13.90
2018-04-18T00:55:06.674Z,13.63
2018-04-18T00:57:39.212Z,13.53
2018-04-18T01:00:11.771Z,13.63
2018-04-18T01:02:45.140Z,13.23
2018-04-18T01:05:17.605Z,13.37
2018-04-18T01:07:50.253Z,14.30
2018-04-18T01:10:23.431Z,13.23
2018-04-18T01:12:55.918Z,13.90
2018-04-18T01:15:28.655Z,13.50
2018-04-18T01:18:01.225Z,13.70
2018-04-18T01:20:34.264Z,13.27
2018-04-18T01:23:08.060Z,14.00
2018-04-18T01:25:40.701Z,13.87
2018-04-18T01:28:13.676Z,13.17
2018-04-18T01:30:46.386Z,14.20
2018-04-18T01:33:19.301Z,13.17
2018-04-18T01:35:52.072Z,15.07
2018-04-18T01:38:24.797Z,13.80
2018-04-18T01:40:57.636Z,15.33
2018-04-18T01:43:30.225Z,15.10
2018-04-18T01:46:03.311Z,14.97
2018-04-18T01:48:35.804Z,14.23
2018-04-18T01:51:09.596Z,14.70
2018-04-18T01:53:43.041Z,15.50
2018-04-18T01:56:15.891Z,15.47
2018-04-18T01:58:48.739Z,15.27
2018-04-18T02:01:22.116Z,14.67
2018-04-18T02:03:55.079Z,13.80
2018-04-18T02:06:28.035Z,14.00
2018-04-18T02:09:01.453Z,14.83
2018-04-18T02:11:33.946Z,15.00
2018-04-18T02:14:06.864Z,15.93
2018-04-18T02:16:39.646Z,15.73
2018-04-18T02:19:12.859Z,16.70
2018-04-18T02:21:45.480Z,16.17
2018-04-18T02:24:18.420Z,14.83
2018-04-18T02:26:51.076Z,13.93
2018-04-18T02:29:24.333Z,16.53
2018-04-18T02:31:57.404Z,16.90
2018-04-18T02:34:29.938Z,16.43
2018-04-18T02:37:02.684Z,15.73
2018-04-18T02:39:35.624Z,14.87
2018-04-18T02:42:08.611Z,15.00
2018-04-18T02:44:41.408Z,15.53
2018-04-18T02:47:14.278Z,14.97
2018-04-18T02:49:46.962Z,16.20
2018-04-18T02:52:19.842Z,14.70
2018-04-18T02:54:52.530Z,14.87
2018-04-18T02:57:25.237Z,14.50
2018-04-18T02:59:58.058Z,16.30
2018-04-18T03:02:31.622Z,14.83
2018-04-18T03:05:04.674Z,14.87
2018-04-18T03:07:37.147Z,16.10
2018-04-18T03:10:10.027Z,16.83
2018-04-18T03:12:42.733Z,16.63
2018-04-18T03:15:15.898Z,15.90
2018-04-18T03:17:50.134Z,16.07
2018-04-18T03:20:23.035Z,15.10
2018-04-18T03:22:55.683Z,14.43
2018-04-18T03:25:28.462Z,14.47
2018-04-18T03:28:01.354Z,14.93
2018-04-18T03:30:33.963Z,14.33
2018-04-18T03:33:06.837Z,16.10
2018-04-18T03:35:39.299Z,15.90
2018-04-18T03:38:12.923Z,15.27
2018-04-18T03:40:52.235Z,15.73
2018-04-18T03:43:25.494Z,16.13
2018-04-18T03:45:59.234Z,13.90
2018-04-18T03:48:31.691Z,17.27
2018-04-18T03:51:04.200Z,16.90
2018-04-18T03:53:36.853Z,15.77
2018-04-18T03:56:09.938Z,16.17
2018-04-18T03:58:42.769Z,17.23
2018-04-18T04:01:16.008Z,16.17
2018-04-18T04:03:48.514Z,16.77
2018-04-18T04:06:21.312Z,15.97
2018-04-18T04:08:54.028Z,16.20
2018-04-18T04:11:26.562Z,17.93
2018-04-18T04:13:59.599Z,14.83
2018-04-18T04:16:44.882Z,15.47
2018-04-18T04:19:30.060Z,16.07
2018-04-18T04:22:15.284Z,16.90
2018-04-18T04:24:48.590Z,17.33
2018-04-18T04:27:21.402Z,17.60
2018-04-18T04:29:54.794Z,18.40
2018-04-18T04:32:27.909Z,18.17
2018-04-18T04:35:00.882Z,20.13
2018-04-18T04:37:33.670Z,20.00
2018-04-18T04:40:06.875Z,26.67
2018-04-18T04:42:39.613Z,20.87
2018-04-18T04:45:12.954Z,17.20
2018-04-18T04:47:46.031Z,18.50
2018-04-18T04:50:19.319Z,17.13
2018-04-18T04:52:51.838Z,16.73
2018-04-18T04:55:25.060Z,16.60
2018-04-18T04:57:57.477Z,15.30
2018-04-18T05:00:30.095Z,16.63
2018-04-18T05:03:02.807Z,14.97
2018-04-18T05:05:35.325Z,15.93
2018-04-18T05:08:08.254Z,15.77
2018-04-18T05:10:41.775Z,15.50
2018-04-18T05:13:15.227Z,15.73
2018-04-18T05:15:47.729Z,15.67
2018-04-18T05:18:20.100Z,17.07
2018-04-18T05:20:53.191Z,14.83
2018-04-18T05:23:25.894Z,15.50
2018-04-18T05:25:59.075Z,14.90
2018-04-18T05:28:31.426Z,15.23
2018-04-18T05:31:03.851Z,16.27
2018-04-18T05:33:36.601Z,15.83
2018-04-18T05:36:09.074Z,14.33
2018-04-18T05:38:41.669Z,14.53
2018-04-18T05:41:14.132Z,14.63
2018-04-18T05:43:47.295Z,15.33
2018-04-18T05:46:20.451Z,15.17
2018-04-18T05:48:52.912Z,14.57
2018-04-18T05:51:25.462Z,15.40
2018-04-18T05:53:57.805Z,14.63
2018-04-18T05:56:30.175Z,14.50
2018-04-18T05:59:02.805Z,14.23
2018-04-18T06:01:35.229Z,14.57
2018-04-18T06:04:07.675Z,13.80
2018-04-18T06:06:40.451Z,13.87
2018-04-18T06:09:12.939Z,14.10
2018-04-18T06:11:45.457Z,14.17
2018-04-18T06:14:19.446Z,14.33
2018-04-18T06:16:52.701Z,14.33
2018-04-18T06:19:25.945Z,14.40
2018-04-18T06:21:58.425Z,13.70
2018-04-18T06:24:31.577Z,13.90
2018-04-18T06:27:04.290Z,13.57
2018-04-18T06:29:37.264Z,14.27
2018-04-18T06:32:09.787Z,14.10
2018-04-18T06:34:42.183Z,13.80
2018-04-18T06:37:14.691Z,14.00
2018-04-18T06:39:48.391Z,14.30
2018-04-18T06:42:20.930Z,13.37
2018-04-18T06:44:53.672Z,13.43
2018-04-18T06:47:26.096Z,13.70
2018-04-18T06:49:59.600Z,13.27
2018-04-18T06:52:32.200Z,13.47
2018-04-18T06:55:05.548Z,13.43
2018-04-18T06:57:38.028Z,13.40
2018-04-18T07:00:10.368Z,14.13
2018-04-18T07:02:43.484Z,13.57
2018-04-18T07:05:15.824Z,14.83
2018-04-18T07:07:48.407Z,14.70
2018-04-18T07:10:21.567Z,13.60
2018-04-18T07:12:54.800Z,13.07
2018-04-18T07:15:27.268Z,13.83
2018-04-18T07:17:59.756Z,13.97
2018-04-18T07:20:33.163Z,13.90
2018-04-18T07:23:05.782Z,13.03
2018-04-18T07:25:38.282Z,13.10
2018-04-18T07:28:10.851Z,13.27
2018-04-18T07:30:43.433Z,12.77
2018-04-18T07:33:15.996Z,10.47
2018-04-18T07:35:48.834Z,9.17
2018-04-18T07:38:21.491Z,8.63
2018-04-18T07:40:54.073Z,8.53
2018-04-18T07:43:26.521Z,9.33
2018-04-18T07:45:59.677Z,9.57
2018-04-18T07:48:32.282Z,9.63
2018-04-18T07:51:05.096Z,8.20
2018-04-18T07:53:37.686Z,8.50
2018-04-18T07:56:10.219Z,9.43
2018-04-18T07:58:43.552Z,8.43
2018-04-18T08:01:17.061Z,8.30
2018-04-18T08:03:50.228Z,7.70
2018-04-18T08:06:22.606Z,8.07
2018-04-18T08:08:55.038Z,7.83
2018-04-18T08:11:27.692Z,8.10
2018-04-18T08:14:00.408Z,8.80
2018-04-18T08:16:32.973Z,8.60
2018-04-18T08:19:05.528Z,8.00
2018-04-18T08:21:38.286Z,8.13
2018-04-18T08:24:11.048Z,9.03
2018-04-18T08:26:43.716Z,7.63
2018-04-18T08:29:16.184Z,7.27
2018-04-18T08:31:48.608Z,8.10
2018-04-18T08:34:21.291Z,7.43
2018-04-18T08:36:53.929Z,8.13
2018-04-18T08:39:26.563Z,8.15
2018-04-18T08:41:59.071Z,7.67
2018-04-18T08:44:31.621Z,7.10
2018-04-18T08:47:04.048Z,7.43
2018-04-18T08:49:36.588Z,7.07
2018-04-18T08:52:16.292Z,6.40
2018-04-18T08:54:48.916Z,7.65
2018-04-18T08:57:22.103Z,7.45
2018-04-18T08:59:55.221Z,7.40
2018-04-18T09:02:27.749Z,7.72
2018-04-18T09:05:00.227Z,8.07
2018-04-18T09:07:32.950Z,7.40
2018-04-18T09:10:05.596Z,8.55
2018-04-18T09:12:38.281Z,7.90
2018-04-18T09:15:10.792Z,9.18
2018-04-18T09:17:43.371Z,9.77
2018-04-18T09:20:15.716Z,8.90
2018-04-18T09:22:48.240Z,8.95
2018-04-18T09:25:20.694Z,9.32
2018-04-18T09:27:53.226Z,9.57
2018-04-18T09:30:26.511Z,8.32
2018-04-18T09:32:59.977Z,11.32
2018-04-18T09:35:32.479Z,8.85
2018-04-18T09:38:05.572Z,10.45
2018-04-18T09:40:37.956Z,10.52
2018-04-18T09:43:10.487Z,11.48
2018-04-18T09:45:43.096Z,11.05
2018-04-18T09:48:16.543Z,9.90
2018-04-18T09:50:49.187Z,9.48
2018-04-18T09:53:21.762Z,10.00
2018-04-18T09:55:54.276Z,9.57
2018-04-18T09:58:27.099Z,9.68
2018-04-18T10:00:59.612Z,8.98
2018-04-18T10:03:32.992Z,8.95
2018-04-18T10:06:05.550Z,8.75
2018-04-18T10:08:39.542Z,8.98
2018-04-18T10:11:12.991Z,8.10
2018-04-18T10:13:45.533Z,8.85
2018-04-18T10:16:18.133Z,7.85
2018-04-18T10:18:50.736Z,6.97
2018-04-18T10:21:23.891Z,8.63
2018-04-18T10:23:56.570Z,8.60
2018-04-18T10:26:29.190Z,8.40
2018-04-18T10:29:01.956Z,8.48
2018-04-18T10:31:35.834Z,8.93
2018-04-18T10:34:08.306Z,8.80
2018-04-18T10:36:41.870Z,8.60
2018-04-18T10:39:14.565Z,8.73
2018-04-18T10:41:47.240Z,9.30
2018-04-18T10:44:19.746Z,8.40
2018-04-18T10:46:52.901Z,9.30
2018-04-18T10:49:26.279Z,8.07
2018-04-18T10:51:58.950Z,9.80
2018-04-18T10:54:32.086Z,8.50
2018-04-18T10:57:04.556Z,9.32
2018-04-18T10:59:37.277Z,10.90
2018-04-18T11:02:09.904Z,10.57
2018-04-18T11:04:42.429Z,10.25
2018-04-18T11:07:15.130Z,9.73
2018-04-18T11:09:47.652Z,9.93
2018-04-18T11:12:20.942Z,10.13
2018-04-18T11:14:54.191Z,11.18
2018-04-18T11:17:26.818Z,12.05
2018-04-18T11:19:59.293Z,11.15
2018-04-18T11:22:31.932Z,11.93
2018-04-18T11:25:04.670Z,11.00
2018-04-18T11:27:37.257Z,11.07
2018-04-18T11:30:10.926Z,11.98
2018-04-18T11:32:43.331Z,11.00
2018-04-18T11:35:15.722Z,9.80
2018-04-18T11:37:48.126Z,10.93
2018-04-18T11:40:20.852Z,10.25
2018-04-18T11:42:53.896Z,8.88
2018-04-18T11:45:26.597Z,7.10
2018-04-18T11:47:59.199Z,8.32
2018-04-18T11:50:31.559Z,8.00
2018-04-18T11:53:04.183Z,8.38
2018-04-18T11:55:36.506Z,6.97
2018-04-18T11:58:09.201Z,7.22
2018-04-18T12:00:41.754Z,6.95
2018-04-18T12:03:15.052Z,6.90
2018-04-18T12:05:48.243Z,7.00
2018-04-18T12:08:20.823Z,7.15
2018-04-18T12:10:53.185Z,6.97
2018-04-18T12:13:25.998Z,6.43
2018-04-18T12:15:59.213Z,6.75
2018-04-18T12:18:31.680Z,6.82
2018-04-18T12:21:04.112Z,6.18
2018-04-18T12:23:36.847Z,6.50
2018-04-18T12:26:09.353Z,7.78
2018-04-18T12:28:41.864Z,7.28
2018-04-18T12:31:14.929Z,7.37
2018-04-18T12:33:47.398Z,6.62
2018-04-18T12:36:20.209Z,7.05
2018-04-18T12:38:52.749Z,6.90
2018-04-18T12:41:25.251Z,7.72
2018-04-18T12:43:57.837Z,6.95
2018-04-18T12:46:31.132Z,7.18
2018-04-18T12:49:05.148Z,6.68
2018-04-18T12:51:38.401Z,7.45
2018-04-18T12:54:11.641Z,7.90
2018-04-18T12:56:44.113Z,7.12
2018-04-18T12:59:17.525Z,7.25
2018-04-18T13:01:50.774Z,6.72
2018-04-18T13:04:23.255Z,8.02
2018-04-18T13:06:55.731Z,7.82
2018-04-18T13:09:29.575Z,7.03
2018-04-18T13:12:02.117Z,6.65
2018-04-18T13:14:34.716Z,4.95
2018-04-18T13:17:07.313Z,6.22
2018-04-18T13:19:39.801Z,7.05
2018-04-18T13:22:12.584Z,7.15
2018-04-18T13:24:45.095Z,6.20
2018-04-18T13:27:17.449Z,6.45
2018-04-18T13:29:49.875Z,6.97
2018-04-18T13:32:22.404Z,6.62
2018-04-18T13:34:54.864Z,5.43
2018-04-18T13:37:27.456Z,7.20
2018-04-18T13:40:00.741Z,6.30
2018-04-18T13:42:33.250Z,5.75
2018-04-18T13:45:05.887Z,12.48
2018-04-18T13:47:38.380Z,10.38
2018-04-18T13:50:11.181Z,5.70
2018-04-18T13:52:43.687Z,5.25
2018-04-18T13:55:16.526Z,7.80
2018-04-18T13:57:49.881Z,5.93
2018-04-18T14:00:22.250Z,5.95
2018-04-18T14:02:54.705Z,6.50
2018-04-18T14:05:27.137Z,6.00
2018-04-18T14:08:00.042Z,5.20
2018-04-18T14:10:33.350Z,6.00
2018-04-18T14:13:07.475Z,6.55
2018-04-18T14:15:40.718Z,5.68
2018-04-18T14:18:14.671Z,7.50
2018-04-18T14:20:47.969Z,5.25
2018-04-18T14:23:20.443Z,6.32
2018-04-18T14:25:52.991Z,5.37
2018-04-18T14:28:26.188Z,5.72
2018-04-18T14:30:58.672Z,5.97
2018-04-18T14:33:31.238Z,5.25
2018-04-18T14:36:04.553Z,5.45
2018-04-18T14:38:37.002Z,5.28
2018-04-18T14:41:09.407Z,4.82
2018-04-18T14:43:42.749Z,5.40
2018-04-18T14:46:15.308Z,4.87
2018-04-18T14:48:47.617Z,5.10
2018-04-18T14:51:19.942Z,6.10
2018-04-18T14:53:53.051Z,5.80
2018-04-18T14:56:26.251Z,6.50
2018-04-18T14:58:59.662Z,5.03
2018-04-18T15:01:32.211Z,6.53
2018-04-18T15:04:04.896Z,5.53
2018-04-18T15:06:38.240Z,6.43
2018-04-18T15:09:10.975Z,4.78
2018-04-18T15:11:43.613Z,4.93
2018-04-18T15:14:16.488Z,4.80
2018-04-18T15:16:48.961Z,4.97
2018-04-18T15:19:21.556Z,5.15
2018-04-18T15:21:54.334Z,5.82
2018-04-18T15:24:26.960Z,4.82
2018-04-18T15:26:59.470Z,3.92
2018-04-18T15:29:32.172Z,4.80
2018-04-18T15:32:04.751Z,4.97
2018-04-18T15:34:37.862Z,5.47
2018-04-18T15:37:11.113Z,4.90
2018-04-18T15:39:44.265Z,5.55
2018-04-18T15:42:17.860Z,5.60
2018-04-18T15:44:50.368Z,5.28
2018-04-18T15:47:23.023Z,4.57
2018-04-18T15:49:55.528Z,4.43
2018-04-18T15:52:27.936Z,5.43
2018-04-18T15:55:00.765Z,5.30
2018-04-18T15:57:33.314Z,5.90
2018-04-18T16:00:06.038Z,5.60
2018-04-18T16:02:39.343Z,5.43
2018-04-18T16:05:12.094Z,5.12
2018-04-18T16:07:44.639Z,4.97
2018-04-18T16:10:17.337Z,5.87
2018-04-18T16:12:49.895Z,6.75
2018-04-18T16:15:23.153Z,5.53
2018-04-18T16:17:56.657Z,7.47
2018-04-18T16:20:29.115Z,5.28
2018-04-18T16:23:01.581Z,5.97
2018-04-18T16:25:34.353Z,6.32
2018-04-18T16:28:06.792Z,6.95
2018-04-18T16:30:40.527Z,6.20
2018-04-18T16:33:13.083Z,6.82
2018-04-18T16:35:45.587Z,6.47
2018-04-18T16:38:18.908Z,5.62
2018-04-18T16:40:51.413Z,4.82
2018-04-18T16:43:24.914Z,6.00
2018-04-18T16:45:58.198Z,5.70
2018-04-18T16:48:30.685Z,6.72
2018-04-18T16:51:03.295Z,6.60
2018-04-18T16:53:35.709Z,5.87
2018-04-18T16:56:08.935Z,8.30
2018-04-18T16:58:42.283Z,7.82
2018-04-18T17:01:14.869Z,6.87
2018-04-18T17:03:47.939Z,8.52
2018-04-18T17:06:21.510Z,8.05
2018-04-18T17:08:54.218Z,7.95
2018-04-18T17:11:27.568Z,7.68
2018-04-18T17:14:00.139Z,8.75
2018-04-18T17:16:32.835Z,8.10
2018-04-18T17:19:05.283Z,8.77
2018-04-18T17:21:37.893Z,9.55
2018-04-18T17:24:10.479Z,8.80
2018-04-18T17:26:43.055Z,9.85
2018-04-18T17:29:15.618Z,9.30
2018-04-18T17:31:48.357Z,9.57
2018-04-18T17:34:20.825Z,9.05
2018-04-18T17:36:53.265Z,10.10
2018-04-18T17:39:25.892Z,11.40
2018-04-18T17:41:58.524Z,10.13
2018-04-18T17:44:31.240Z,10.48
2018-04-18T17:47:04.148Z,10.27
2018-04-18T17:49:37.720Z,9.43
2018-04-18T17:52:10.407Z,9.50
2018-04-18T17:54:42.885Z,10.02
2018-04-18T17:57:16.313Z,9.40
2018-04-18T17:59:48.899Z,9.70
2018-04-18T18:02:21.547Z,8.80
2018-04-18T18:04:54.288Z,9.10
2018-04-18T18:07:27.448Z,9.50
2018-04-18T18:10:00.009Z,10.73
2018-04-18T18:12:32.604Z,12.82
2018-04-18T18:15:05.221Z,11.38
2018-04-18T18:17:37.954Z,10.35
2018-04-18T18:20:10.423Z,10.43
2018-04-18T18:22:42.874Z,10.05
2018-04-18T18:25:15.638Z,10.10
2018-04-18T18:27:48.264Z,9.70
2018-04-18T18:30:21.065Z,10.13
2018-04-18T18:32:54.413Z,10.10
2018-04-18T18:35:27.091Z,9.73
2018-04-18T18:37:59.903Z,9.63
2018-04-18T18:40:33.215Z,9.05
2018-04-18T18:43:05.819Z,9.57
2018-04-18T18:45:39.294Z,10.18
2018-04-18T18:48:12.749Z,9.85
2018-04-18T18:50:45.584Z,9.68
2018-04-18T18:53:18.394Z,9.20
2018-04-18T18:55:51.196Z,9.57
2018-04-18T18:58:23.999Z,9.77
2018-04-18T19:00:56.865Z,9.10
2018-04-18T19:03:30.153Z,8.88
2018-04-18T19:06:02.772Z,9.68
2018-04-18T19:08:35.370Z,9.77
2018-04-18T19:11:08.091Z,10.27
2018-04-18T19:13:40.736Z,9.87
2018-04-18T19:16:13.360Z,10.13
2018-04-18T19:18:46.235Z,10.57
2018-04-18T19:21:18.678Z,10.53
2018-04-18T19:23:51.793Z,10.40
2018-04-18T19:26:24.979Z,10.87
2018-04-18T19:28:57.450Z,10.73
2018-04-18T19:31:30.305Z,10.60
2018-04-18T19:34:03.708Z,11.73
2018-04-18T19:36:36.424Z,12.00
2018-04-18T19:39:09.160Z,11.30
2018-04-18T19:41:41.715Z,12.47
2018-04-18T19:44:14.604Z,12.10
2018-04-18T19:46:47.198Z,12.37
2018-04-18T19:49:19.870Z,11.53
2018-04-18T19:51:52.702Z,11.17
2018-04-18T19:54:25.338Z,11.03
2018-04-18T19:56:57.738Z,10.63
2018-04-18T19:59:31.200Z,10.80
2018-04-18T20:02:03.835Z,10.00
2018-04-18T20:04:37.256Z,9.77
2018-04-18T20:07:10.740Z,9.63
2018-04-18T20:09:43.428Z,9.60
2018-04-18T20:12:15.975Z,9.63
2018-04-18T20:14:48.413Z,9.30
2018-04-18T20:17:21.731Z,9.60
2018-04-18T20:19:54.190Z,8.90
2018-04-18T20:22:26.763Z,8.60
2018-04-18T20:24:59.298Z,8.80
2018-04-18T20:27:31.969Z,8.07
2018-04-18T20:30:04.769Z,9.20
2018-04-18T20:32:37.734Z,8.50
2018-04-18T20:35:10.376Z,8.80
2018-04-18T20:37:43.006Z,9.33
2018-04-18T20:40:16.398Z,11.00
2018-04-18T20:42:56.482Z,10.60
2018-04-18T20:45:28.965Z,10.20
2018-04-18T20:48:02.274Z,10.67
2018-04-18T20:50:34.798Z,9.10
2018-04-18T20:53:07.444Z,10.23
2018-04-18T20:55:39.833Z,10.10
2018-04-18T20:58:12.318Z,9.33
2018-04-18T21:00:44.993Z,8.93
2018-04-18T21:03:17.537Z,9.17
2018-04-18T21:05:50.239Z,9.07
2018-04-18T21:08:22.744Z,9.00
2018-04-18T21:10:57.008Z,8.57
2018-04-18T21:13:29.379Z,8.63
2018-04-18T21:16:02.714Z,8.67
2018-04-18T21:18:35.584Z,8.23
2018-04-18T21:21:08.183Z,8.00
2018-04-18T21:23:40.652Z,8.13
2018-04-18T21:26:13.504Z,8.10
2018-04-18T21:28:46.013Z,8.57
2018-04-18T21:31:18.890Z,8.70
2018-04-18T21:33:51.331Z,9.07
2018-04-18T21:36:24.610Z,8.43
2018-04-18T21:38:57.156Z,8.60
2018-04-18T21:41:29.773Z,8.13
2018-04-18T21:44:02.209Z,8.50
2018-04-18T21:46:35.063Z,8.27
2018-04-18T21:49:08.671Z,8.47
2018-04-18T21:51:41.075Z,8.43
2018-04-18T21:54:13.604Z,8.20
2018-04-18T21:56:46.663Z,8.60
2018-04-18T21:59:19.341Z,7.80
2018-04-18T22:01:51.759Z,8.47
2018-04-18T22:04:25.006Z,9.10
2018-04-18T22:06:58.394Z,8.87
2018-04-18T22:09:31.101Z,8.60
2018-04-18T22:12:03.667Z,9.20
2018-04-18T22:14:36.207Z,10.00
2018-04-18T22:17:08.673Z,9.00
2018-04-18T22:19:41.187Z,9.03
2018-04-18T22:22:13.777Z,8.83
2018-04-18T22:24:46.377Z,9.87
2018-04-18T22:27:18.780Z,9.07
2018-04-18T22:29:51.192Z,9.50
2018-04-18T22:32:23.867Z,9.03
2018-04-18T22:34:56.382Z,9.00
2018-04-18T22:37:28.988Z,9.67
2018-04-18T22:40:01.664Z,10.47
2018-04-18T22:42:34.057Z,10.03
2018-04-18T22:45:06.471Z,9.73
2018-04-18T22:47:38.938Z,10.40
2018-04-18T22:50:11.596Z,10.30
2018-04-18T22:52:45.114Z,10.00
2018-04-18T22:55:17.673Z,10.93
2018-04-18T22:57:50.799Z,10.17
2018-04-18T23:00:23.278Z,10.97
2018-04-18T23:02:56.490Z,10.23
2018-04-18T23:05:29.083Z,10.57
2018-04-18T23:08:01.749Z,10.57
2018-04-18T23:10:35.101Z,11.57
2018-04-18T23:13:07.559Z,11.53
2018-04-18T23:15:40.348Z,11.33
2018-04-18T23:18:12.807Z,11.90
2018-04-18T23:20:45.438Z,10.80
2018-04-18T23:23:17.929Z,10.60
2018-04-18T23:25:50.352Z,10.53
2018-04-18T23:28:23.748Z,10.00
2018-04-18T23:30:56.904Z,10.43
2018-04-18T23:33:29.354Z,10.13
2018-04-18T23:36:02.646Z,9.97
2018-04-18T23:38:35.268Z,10.70
2018-04-18T23:41:07.870Z,10.77
2018-04-18T23:43:41.207Z,11.17
2018-04-18T23:46:13.906Z,11.40
2018-04-18T23:48:46.258Z,9.97
2018-04-18T23:51:18.699Z,10.57
2018-04-18T23:53:51.327Z,10.63
2018-04-18T23:56:23.910Z,10.83
2018-04-18T23:58:56.348Z,10.83
